sensor_id;sensor_type;location;lat;lon;timestamp;temperature;humidity
11142;DHT22;5625;50.122;19.864;2023-07-20T00:01:18;21.80;99.90
11142;DHT22;5625;50.122;19.864;2023-07-20T00:03:46;21.80;99.90
11142;DHT22;5625;50.122;19.864;2023-07-20T00:06:22;21.80;1.00
11142;DHT22;5625;50.122;19.864;2023-07-20T00:08:50;21.70;1.00
11142;DHT22;5625;50.122;19.864;2023-07-20T00:11:18;21.70;1.00
11142;DHT22;5625;50.122;19.864;2023-07-20T00:13:46;21.60;99.90
11142;DHT22;5625;50.122;19.864;2023-07-20T00:16:16;21.60;99.90
11142;DHT22;5625;50.122;19.864;2023-07-20T00:18:47;21.60;99.90
11142;DHT22;5625;50.122;19.864;2023-07-20T00:21:15;21.60;99.90
11142;DHT22;5625;50.122;19.864;2023-07-20T00:23:43;21.50;99.90
11142;DHT22;5625;50.122;19.864;2023-07-20T00:26:11;21.50;99.90
11142;DHT22;5625;50.122;19.864;2023-07-20T00:28:39;21.40;99.90
11142;DHT22;5625;50.122;19.864;2023-07-20T00:31:08;21.40;99.90
11142;DHT22;5625;50.122;19.864;2023-07-20T00:33:37;21.30;99.90
11142;DHT22;5625;50.122;19.864;2023-07-20T00:36:06;21.30;81.80
11142;DHT22;5625;50.122;19.864;2023-07-20T00:38:34;21.30;27.50
11142;DHT22;5625;50.122;19.864;2023-07-20T00:41:02;21.30;44.30
11142;DHT22;5625;50.122;19.864;2023-07-20T00:43:30;21.30;31.20
11142;DHT22;5625;50.122;19.864;2023-07-20T00:45:59;21.30;66.90
11142;DHT22;5625;50.122;19.864;2023-07-20T00:48:27;21.30;99.90
11142;DHT22;5625;50.122;19.864;2023-07-20T00:50:58;21.20;99.90
11142;DHT22;5625;50.122;19.864;2023-07-20T00:53:26;21.20;99.90
11142;DHT22;5625;50.122;19.864;2023-07-20T00:55:55;21.20;99.90
11142;DHT22;5625;50.122;19.864;2023-07-20T00:58:23;21.10;99.90
11142;DHT22;5625;50.122;19.864;2023-07-20T01:00:52;21.10;99.90
11142;DHT22;5625;50.122;19.864;2023-07-20T01:03:20;21.10;99.90
11142;DHT22;5625;50.122;19.864;2023-07-20T01:05:53;21.00;99.90
11142;DHT22;5625;50.122;19.864;2023-07-20T01:08:27;21.00;99.90
11142;DHT22;5625;50.122;19.864;2023-07-20T01:11:05;21.00;1.00
11142;DHT22;5625;50.122;19.864;2023-07-20T01:13:34;20.90;1.00
11142;DHT22;5625;50.122;19.864;2023-07-20T01:16:03;20.80;1.00
11142;DHT22;5625;50.122;19.864;2023-07-20T01:18:31;20.60;72.40
11142;DHT22;5625;50.122;19.864;2023-07-20T01:21:01;20.60;99.90
11142;DHT22;5625;50.122;19.864;2023-07-20T01:24:05;20.60;99.90
11142;DHT22;5625;50.122;19.864;2023-07-20T01:27:19;20.50;99.90
11142;DHT22;5625;50.122;19.864;2023-07-20T01:30:09;20.50;99.90
11142;DHT22;5625;50.122;19.864;2023-07-20T01:32:41;20.50;99.90
11142;DHT22;5625;50.122;19.864;2023-07-20T01:35:11;20.50;99.90
11142;DHT22;5625;50.122;19.864;2023-07-20T01:37:43;20.40;99.90
11142;DHT22;5625;50.122;19.864;2023-07-20T01:40:14;20.40;99.90
11142;DHT22;5625;50.122;19.864;2023-07-20T01:42:44;20.40;99.90
11142;DHT22;5625;50.122;19.864;2023-07-20T01:45:13;20.30;99.90
11142;DHT22;5625;50.122;19.864;2023-07-20T01:47:42;20.30;99.90
11142;DHT22;5625;50.122;19.864;2023-07-20T01:50:10;20.30;99.90
11142;DHT22;5625;50.122;19.864;2023-07-20T01:52:39;20.20;99.90
11142;DHT22;5625;50.122;19.864;2023-07-20T01:55:08;20.20;99.90
11142;DHT22;5625;50.122;19.864;2023-07-20T01:57:36;20.20;99.90
11142;DHT22;5625;50.122;19.864;2023-07-20T02:00:05;20.20;99.90
11142;DHT22;5625;50.122;19.864;2023-07-20T02:02:35;20.20;99.90
11142;DHT22;5625;50.122;19.864;2023-07-20T02:05:05;20.30;99.90
11142;DHT22;5625;50.122;19.864;2023-07-20T02:07:33;20.20;99.90
11142;DHT22;5625;50.122;19.864;2023-07-20T02:10:04;20.20;99.90
11142;DHT22;5625;50.122;19.864;2023-07-20T02:12:33;20.20;99.90
11142;DHT22;5625;50.122;19.864;2023-07-20T02:15:01;20.20;99.90
11142;DHT22;5625;50.122;19.864;2023-07-20T02:17:29;20.20;99.90
11142;DHT22;5625;50.122;19.864;2023-07-20T02:19:57;20.20;99.90
11142;DHT22;5625;50.122;19.864;2023-07-20T02:22:27;20.20;99.90
11142;DHT22;5625;50.122;19.864;2023-07-20T02:24:55;20.20;1.00
11142;DHT22;5625;50.122;19.864;2023-07-20T02:27:23;20.20;1.00
11142;DHT22;5625;50.122;19.864;2023-07-20T02:29:51;20.20;1.00
11142;DHT22;5625;50.122;19.864;2023-07-20T02:32:19;20.10;1.00
11142;DHT22;5625;50.122;19.864;2023-07-20T02:34:47;20.10;1.00
11142;DHT22;5625;50.122;19.864;2023-07-20T02:37:16;20.10;1.00
11142;DHT22;5625;50.122;19.864;2023-07-20T02:39:45;20.20;1.00
11142;DHT22;5625;50.122;19.864;2023-07-20T02:42:13;20.10;1.00
11142;DHT22;5625;50.122;19.864;2023-07-20T02:44:41;20.10;1.00
11142;DHT22;5625;50.122;19.864;2023-07-20T02:47:10;20.10;1.00
11142;DHT22;5625;50.122;19.864;2023-07-20T02:49:38;20.10;1.00
11142;DHT22;5625;50.122;19.864;2023-07-20T02:52:06;20.10;1.00
11142;DHT22;5625;50.122;19.864;2023-07-20T02:54:34;20.00;1.00
11142;DHT22;5625;50.122;19.864;2023-07-20T02:57:04;20.00;1.00
11142;DHT22;5625;50.122;19.864;2023-07-20T02:59:32;19.90;1.00
11142;DHT22;5625;50.122;19.864;2023-07-20T03:02:00;19.90;1.00
11142;DHT22;5625;50.122;19.864;2023-07-20T03:04:28;19.90;1.00
11142;DHT22;5625;50.122;19.864;2023-07-20T03:06:56;19.90;1.00
11142;DHT22;5625;50.122;19.864;2023-07-20T03:09:26;19.80;1.00
11142;DHT22;5625;50.122;19.864;2023-07-20T03:11:54;19.80;1.00
11142;DHT22;5625;50.122;19.864;2023-07-20T03:14:24;19.80;1.00
11142;DHT22;5625;50.122;19.864;2023-07-20T03:16:52;19.80;1.00
11142;DHT22;5625;50.122;19.864;2023-07-20T03:19:20;19.70;1.00
11142;DHT22;5625;50.122;19.864;2023-07-20T03:21:48;19.70;1.00
11142;DHT22;5625;50.122;19.864;2023-07-20T03:24:16;19.70;1.00
11142;DHT22;5625;50.122;19.864;2023-07-20T03:26:44;19.60;1.00
11142;DHT22;5625;50.122;19.864;2023-07-20T03:29:12;19.70;1.00
11142;DHT22;5625;50.122;19.864;2023-07-20T03:31:42;19.60;1.00
11142;DHT22;5625;50.122;19.864;2023-07-20T03:34:10;19.50;99.90
11142;DHT22;5625;50.122;19.864;2023-07-20T03:36:41;19.60;99.90
11142;DHT22;5625;50.122;19.864;2023-07-20T03:39:10;19.60;99.90
11142;DHT22;5625;50.122;19.864;2023-07-20T03:41:38;19.60;99.90
11142;DHT22;5625;50.122;19.864;2023-07-20T03:44:06;19.50;99.90
11142;DHT22;5625;50.122;19.864;2023-07-20T03:46:34;19.50;99.90
11142;DHT22;5625;50.122;19.864;2023-07-20T03:49:03;19.50;1.00
11142;DHT22;5625;50.122;19.864;2023-07-20T03:51:32;19.50;1.00
11142;DHT22;5625;50.122;19.864;2023-07-20T03:54:01;19.50;1.00
11142;DHT22;5625;50.122;19.864;2023-07-20T03:56:29;19.40;1.00
11142;DHT22;5625;50.122;19.864;2023-07-20T03:59:01;19.40;1.00
11142;DHT22;5625;50.122;19.864;2023-07-20T04:01:29;19.40;1.00
11142;DHT22;5625;50.122;19.864;2023-07-20T04:04:07;19.40;1.00
11142;DHT22;5625;50.122;19.864;2023-07-20T04:06:35;19.40;1.00
11142;DHT22;5625;50.122;19.864;2023-07-20T04:09:04;19.40;1.00
11142;DHT22;5625;50.122;19.864;2023-07-20T04:11:32;19.40;1.00
11142;DHT22;5625;50.122;19.864;2023-07-20T04:14:00;19.30;1.00
11142;DHT22;5625;50.122;19.864;2023-07-20T04:18:11;19.30;1.00
11142;DHT22;5625;50.122;19.864;2023-07-20T04:20:40;19.30;1.00
11142;DHT22;5625;50.122;19.864;2023-07-20T04:23:08;19.30;1.00
11142;DHT22;5625;50.122;19.864;2023-07-20T04:25:39;19.20;1.00
11142;DHT22;5625;50.122;19.864;2023-07-20T04:28:07;19.30;1.00
11142;DHT22;5625;50.122;19.864;2023-07-20T04:30:38;19.40;1.00
11142;DHT22;5625;50.122;19.864;2023-07-20T04:33:07;19.40;1.00
11142;DHT22;5625;50.122;19.864;2023-07-20T04:35:47;19.50;1.00
11142;DHT22;5625;50.122;19.864;2023-07-20T04:38:16;19.50;1.00
11142;DHT22;5625;50.122;19.864;2023-07-20T04:40:45;19.60;1.00
11142;DHT22;5625;50.122;19.864;2023-07-20T04:43:13;19.60;1.00
11142;DHT22;5625;50.122;19.864;2023-07-20T04:45:41;19.60;1.00
11142;DHT22;5625;50.122;19.864;2023-07-20T04:48:11;19.70;1.00
11142;DHT22;5625;50.122;19.864;2023-07-20T04:50:40;19.70;1.00
11142;DHT22;5625;50.122;19.864;2023-07-20T04:53:10;19.70;1.00
11142;DHT22;5625;50.122;19.864;2023-07-20T04:55:39;19.70;1.00
11142;DHT22;5625;50.122;19.864;2023-07-20T04:58:08;19.80;1.00
11142;DHT22;5625;50.122;19.864;2023-07-20T05:00:38;19.80;1.00
11142;DHT22;5625;50.122;19.864;2023-07-20T05:03:06;19.70;99.90
11142;DHT22;5625;50.122;19.864;2023-07-20T05:05:34;19.70;99.90
11142;DHT22;5625;50.122;19.864;2023-07-20T05:08:04;19.80;99.90
11142;DHT22;5625;50.122;19.864;2023-07-20T05:10:33;19.80;99.90
11142;DHT22;5625;50.122;19.864;2023-07-20T05:13:01;19.80;99.90
11142;DHT22;5625;50.122;19.864;2023-07-20T05:15:29;19.80;99.90
11142;DHT22;5625;50.122;19.864;2023-07-20T05:17:57;19.90;99.90
11142;DHT22;5625;50.122;19.864;2023-07-20T05:20:26;19.90;99.90
11142;DHT22;5625;50.122;19.864;2023-07-20T05:22:54;19.80;99.90
11142;DHT22;5625;50.122;19.864;2023-07-20T05:25:25;19.80;99.90
11142;DHT22;5625;50.122;19.864;2023-07-20T05:27:58;19.90;99.90
11142;DHT22;5625;50.122;19.864;2023-07-20T05:30:26;19.90;99.90
11142;DHT22;5625;50.122;19.864;2023-07-20T05:32:55;19.90;99.90
11142;DHT22;5625;50.122;19.864;2023-07-20T05:35:25;20.00;99.90
11142;DHT22;5625;50.122;19.864;2023-07-20T05:37:53;20.00;99.90
11142;DHT22;5625;50.122;19.864;2023-07-20T05:40:21;20.10;99.90
11142;DHT22;5625;50.122;19.864;2023-07-20T05:42:49;20.10;99.90
11142;DHT22;5625;50.122;19.864;2023-07-20T05:45:20;20.10;99.90
11142;DHT22;5625;50.122;19.864;2023-07-20T05:47:48;20.20;99.90
11142;DHT22;5625;50.122;19.864;2023-07-20T05:50:16;20.30;99.90
11142;DHT22;5625;50.122;19.864;2023-07-20T05:52:44;20.30;99.90
11142;DHT22;5625;50.122;19.864;2023-07-20T05:55:13;20.30;99.90
11142;DHT22;5625;50.122;19.864;2023-07-20T05:57:41;20.40;99.90
11142;DHT22;5625;50.122;19.864;2023-07-20T06:00:11;20.40;99.90
11142;DHT22;5625;50.122;19.864;2023-07-20T06:02:45;20.50;99.90
11142;DHT22;5625;50.122;19.864;2023-07-20T06:05:14;20.40;86.40
11142;DHT22;5625;50.122;19.864;2023-07-20T06:07:43;20.40;99.90
11142;DHT22;5625;50.122;19.864;2023-07-20T06:10:11;20.40;99.90
11142;DHT22;5625;50.122;19.864;2023-07-20T06:12:39;20.40;99.90
11142;DHT22;5625;50.122;19.864;2023-07-20T06:15:24;20.40;99.90
11142;DHT22;5625;50.122;19.864;2023-07-20T06:17:55;20.40;94.50
11142;DHT22;5625;50.122;19.864;2023-07-20T06:20:25;20.40;99.90
11142;DHT22;5625;50.122;19.864;2023-07-20T06:22:53;20.50;99.90
11142;DHT22;5625;50.122;19.864;2023-07-20T06:25:21;20.50;89.00
11142;DHT22;5625;50.122;19.864;2023-07-20T06:27:50;20.50;60.00
11142;DHT22;5625;50.122;19.864;2023-07-20T06:30:19;20.50;40.00
11142;DHT22;5625;50.122;19.864;2023-07-20T06:32:47;20.70;36.80
11142;DHT22;5625;50.122;19.864;2023-07-20T06:35:17;21.10;1.00
11142;DHT22;5625;50.122;19.864;2023-07-20T06:37:46;21.50;1.00
11142;DHT22;5625;50.122;19.864;2023-07-20T06:40:14;21.80;99.90
11142;DHT22;5625;50.122;19.864;2023-07-20T06:42:45;22.20;2.80
11142;DHT22;5625;50.122;19.864;2023-07-20T06:45:16;22.50;99.90
11142;DHT22;5625;50.122;19.864;2023-07-20T06:47:44;22.90;1.00
11142;DHT22;5625;50.122;19.864;2023-07-20T06:50:13;23.10;99.90
11142;DHT22;5625;50.122;19.864;2023-07-20T06:52:45;23.40;1.00
11142;DHT22;5625;50.122;19.864;2023-07-20T06:55:15;23.80;99.90
11142;DHT22;5625;50.122;19.864;2023-07-20T06:57:49;24.20;1.00
11142;DHT22;5625;50.122;19.864;2023-07-20T07:00:19;24.60;21.60
11142;DHT22;5625;50.122;19.864;2023-07-20T07:02:47;24.90;99.90
11142;DHT22;5625;50.122;19.864;2023-07-20T07:05:17;25.20;99.90
11142;DHT22;5625;50.122;19.864;2023-07-20T07:07:48;25.40;1.00
11142;DHT22;5625;50.122;19.864;2023-07-20T07:10:16;25.70;99.90
11142;DHT22;5625;50.122;19.864;2023-07-20T07:12:45;25.80;82.90
11142;DHT22;5625;50.122;19.864;2023-07-20T07:15:13;25.90;1.00
11142;DHT22;5625;50.122;19.864;2023-07-20T07:17:43;26.20;99.90
11142;DHT22;5625;50.122;19.864;2023-07-20T07:20:12;26.30;99.90
11142;DHT22;5625;50.122;19.864;2023-07-20T07:22:50;26.30;99.90
11142;DHT22;5625;50.122;19.864;2023-07-20T07:25:19;26.30;99.90
11142;DHT22;5625;50.122;19.864;2023-07-20T07:27:50;26.50;76.00
11142;DHT22;5625;50.122;19.864;2023-07-20T07:30:19;26.60;1.00
11142;DHT22;5625;50.122;19.864;2023-07-20T07:32:47;26.80;1.00
11142;DHT22;5625;50.122;19.864;2023-07-20T07:35:15;27.10;1.00
11142;DHT22;5625;50.122;19.864;2023-07-20T07:37:45;27.30;99.90
11142;DHT22;5625;50.122;19.864;2023-07-20T07:40:35;27.30;99.90
11142;DHT22;5625;50.122;19.864;2023-07-20T07:43:03;27.60;99.90
11142;DHT22;5625;50.122;19.864;2023-07-20T07:45:34;27.70;99.90
11142;DHT22;5625;50.122;19.864;2023-07-20T07:48:03;27.80;99.90
11142;DHT22;5625;50.122;19.864;2023-07-20T07:50:32;27.80;99.90
11142;DHT22;5625;50.122;19.864;2023-07-20T07:53:00;27.80;99.90
11142;DHT22;5625;50.122;19.864;2023-07-20T07:55:28;28.10;99.90
11142;DHT22;5625;50.122;19.864;2023-07-20T07:57:58;28.40;72.80
11142;DHT22;5625;50.122;19.864;2023-07-20T08:00:26;28.40;42.90
11142;DHT22;5625;50.122;19.864;2023-07-20T08:02:54;28.00;1.00
11142;DHT22;5625;50.122;19.864;2023-07-20T08:05:22;27.80;1.00
11142;DHT22;5625;50.122;19.864;2023-07-20T08:07:51;27.80;1.00
11142;DHT22;5625;50.122;19.864;2023-07-20T08:10:19;27.90;1.00
11142;DHT22;5625;50.122;19.864;2023-07-20T08:12:47;27.60;1.00
11142;DHT22;5625;50.122;19.864;2023-07-20T08:15:16;27.30;1.00
11142;DHT22;5625;50.122;19.864;2023-07-20T08:17:45;27.20;18.10
11142;DHT22;5625;50.122;19.864;2023-07-20T08:20:13;27.00;19.00
11142;DHT22;5625;50.122;19.864;2023-07-20T08:22:44;27.00;20.20
11142;DHT22;5625;50.122;19.864;2023-07-20T08:25:14;27.10;39.10
11142;DHT22;5625;50.122;19.864;2023-07-20T08:27:42;27.60;31.80
11142;DHT22;5625;50.122;19.864;2023-07-20T08:30:13;27.90;20.20
11142;DHT22;5625;50.122;19.864;2023-07-20T08:32:42;28.10;1.00
11142;DHT22;5625;50.122;19.864;2023-07-20T08:35:10;28.00;1.00
11142;DHT22;5625;50.122;19.864;2023-07-20T08:37:41;27.90;1.00
11142;DHT22;5625;50.122;19.864;2023-07-20T08:40:14;28.20;1.00
11142;DHT22;5625;50.122;19.864;2023-07-20T08:42:42;28.50;1.00
11142;DHT22;5625;50.122;19.864;2023-07-20T08:45:13;28.80;1.00
11142;DHT22;5625;50.122;19.864;2023-07-20T08:47:43;28.90;1.00
11142;DHT22;5625;50.122;19.864;2023-07-20T08:50:14;29.10;1.00
11142;DHT22;5625;50.122;19.864;2023-07-20T08:52:42;29.10;1.00
11142;DHT22;5625;50.122;19.864;2023-07-20T08:55:11;29.10;99.90
11142;DHT22;5625;50.122;19.864;2023-07-20T08:57:40;29.10;99.90
11142;DHT22;5625;50.122;19.864;2023-07-20T09:00:11;28.70;99.90
11142;DHT22;5625;50.122;19.864;2023-07-20T09:02:45;28.90;99.90
11142;DHT22;5625;50.122;19.864;2023-07-20T09:05:14;28.90;99.90
11142;DHT22;5625;50.122;19.864;2023-07-20T09:07:42;29.00;99.90
11142;DHT22;5625;50.122;19.864;2023-07-20T09:10:11;29.20;99.90
11142;DHT22;5625;50.122;19.864;2023-07-20T09:12:41;29.40;99.90
11142;DHT22;5625;50.122;19.864;2023-07-20T09:15:11;29.30;99.90
11142;DHT22;5625;50.122;19.864;2023-07-20T09:17:39;29.30;99.90
11142;DHT22;5625;50.122;19.864;2023-07-20T09:20:15;29.20;99.90
11142;DHT22;5625;50.122;19.864;2023-07-20T09:22:50;29.50;99.90
11142;DHT22;5625;50.122;19.864;2023-07-20T09:25:19;29.80;99.90
11142;DHT22;5625;50.122;19.864;2023-07-20T09:27:49;29.90;99.90
11142;DHT22;5625;50.122;19.864;2023-07-20T09:30:19;29.90;99.90
11142;DHT22;5625;50.122;19.864;2023-07-20T09:32:56;29.70;99.90
11142;DHT22;5625;50.122;19.864;2023-07-20T09:35:27;29.30;99.90
11142;DHT22;5625;50.122;19.864;2023-07-20T09:38:07;29.40;99.90
11142;DHT22;5625;50.122;19.864;2023-07-20T09:40:40;29.40;99.90
11142;DHT22;5625;50.122;19.864;2023-07-20T09:43:15;29.20;99.90
11142;DHT22;5625;50.122;19.864;2023-07-20T09:45:47;29.20;99.90
11142;DHT22;5625;50.122;19.864;2023-07-20T09:48:24;29.40;99.90
11142;DHT22;5625;50.122;19.864;2023-07-20T09:50:57;29.30;99.90
11142;DHT22;5625;50.122;19.864;2023-07-20T09:53:26;29.60;99.90
11142;DHT22;5625;50.122;19.864;2023-07-20T09:55:55;29.70;99.90
11142;DHT22;5625;50.122;19.864;2023-07-20T09:58:26;30.00;99.90
11142;DHT22;5625;50.122;19.864;2023-07-20T10:00:57;29.90;99.90
11142;DHT22;5625;50.122;19.864;2023-07-20T10:03:29;29.90;99.90
11142;DHT22;5625;50.122;19.864;2023-07-20T10:06:06;29.90;99.90
11142;DHT22;5625;50.122;19.864;2023-07-20T10:08:38;29.50;99.90
11142;DHT22;5625;50.122;19.864;2023-07-20T10:11:19;29.20;99.90
11142;DHT22;5625;50.122;19.864;2023-07-20T10:13:51;29.50;99.90
11142;DHT22;5625;50.122;19.864;2023-07-20T10:16:25;29.80;99.90
11142;DHT22;5625;50.122;19.864;2023-07-20T10:18:59;30.10;99.90
11142;DHT22;5625;50.122;19.864;2023-07-20T10:21:32;30.30;99.90
11142;DHT22;5625;50.122;19.864;2023-07-20T10:24:08;30.40;99.90
11142;DHT22;5625;50.122;19.864;2023-07-20T10:26:38;30.40;99.90
11142;DHT22;5625;50.122;19.864;2023-07-20T10:29:08;30.50;99.90
11142;DHT22;5625;50.122;19.864;2023-07-20T10:31:37;30.40;99.90
11142;DHT22;5625;50.122;19.864;2023-07-20T10:34:06;30.30;99.90
11142;DHT22;5625;50.122;19.864;2023-07-20T10:36:43;30.40;99.90
11142;DHT22;5625;50.122;19.864;2023-07-20T10:39:22;30.40;99.90
11142;DHT22;5625;50.122;19.864;2023-07-20T10:42:00;30.50;99.90
11142;DHT22;5625;50.122;19.864;2023-07-20T10:44:31;30.60;99.90
11142;DHT22;5625;50.122;19.864;2023-07-20T10:47:03;30.50;99.90
11142;DHT22;5625;50.122;19.864;2023-07-20T10:49:33;30.60;99.90
11142;DHT22;5625;50.122;19.864;2023-07-20T10:52:06;30.70;99.90
11142;DHT22;5625;50.122;19.864;2023-07-20T10:54:48;30.80;99.90
11142;DHT22;5625;50.122;19.864;2023-07-20T10:57:28;30.50;99.90
11142;DHT22;5625;50.122;19.864;2023-07-20T11:00:18;30.60;99.90
11142;DHT22;5625;50.122;19.864;2023-07-20T11:02:49;30.30;99.90
11142;DHT22;5625;50.122;19.864;2023-07-20T11:05:34;30.10;98.60
11142;DHT22;5625;50.122;19.864;2023-07-20T11:08:08;30.00;99.90
11142;DHT22;5625;50.122;19.864;2023-07-20T11:10:37;30.10;99.90
11142;DHT22;5625;50.122;19.864;2023-07-20T11:13:21;30.00;99.90
11142;DHT22;5625;50.122;19.864;2023-07-20T11:16:11;29.70;99.90
11142;DHT22;5625;50.122;19.864;2023-07-20T11:18:39;29.80;99.90
11142;DHT22;5625;50.122;19.864;2023-07-20T11:21:09;30.10;99.90
11142;DHT22;5625;50.122;19.864;2023-07-20T11:23:40;30.10;99.90
11142;DHT22;5625;50.122;19.864;2023-07-20T11:26:08;30.00;99.60
11142;DHT22;5625;50.122;19.864;2023-07-20T11:28:36;29.70;99.90
11142;DHT22;5625;50.122;19.864;2023-07-20T11:31:04;29.40;99.90
11142;DHT22;5625;50.122;19.864;2023-07-20T11:33:33;29.00;99.90
11142;DHT22;5625;50.122;19.864;2023-07-20T11:36:01;28.80;99.90
11142;DHT22;5625;50.122;19.864;2023-07-20T11:38:51;28.90;99.90
11142;DHT22;5625;50.122;19.864;2023-07-20T11:41:22;29.20;99.90
11142;DHT22;5625;50.122;19.864;2023-07-20T11:43:50;29.50;99.90
11142;DHT22;5625;50.122;19.864;2023-07-20T11:46:18;29.70;99.90
11142;DHT22;5625;50.122;19.864;2023-07-20T11:48:47;30.00;99.90
11142;DHT22;5625;50.122;19.864;2023-07-20T11:51:16;30.10;99.90
11142;DHT22;5625;50.122;19.864;2023-07-20T11:53:44;30.20;99.90
11142;DHT22;5625;50.122;19.864;2023-07-20T11:56:15;30.20;99.90
11142;DHT22;5625;50.122;19.864;2023-07-20T11:58:44;30.40;99.90
11142;DHT22;5625;50.122;19.864;2023-07-20T12:01:12;30.50;99.90
11142;DHT22;5625;50.122;19.864;2023-07-20T12:03:42;30.60;99.90
11142;DHT22;5625;50.122;19.864;2023-07-20T12:06:10;30.70;99.90
11142;DHT22;5625;50.122;19.864;2023-07-20T12:08:39;30.50;99.90
11142;DHT22;5625;50.122;19.864;2023-07-20T12:11:08;30.60;99.90
11142;DHT22;5625;50.122;19.864;2023-07-20T12:13:39;30.60;99.90
11142;DHT22;5625;50.122;19.864;2023-07-20T12:16:11;30.70;95.30
11142;DHT22;5625;50.122;19.864;2023-07-20T12:18:40;30.70;95.60
11142;DHT22;5625;50.122;19.864;2023-07-20T12:21:11;30.60;91.10
11142;DHT22;5625;50.122;19.864;2023-07-20T12:23:40;30.70;86.50
11142;DHT22;5625;50.122;19.864;2023-07-20T12:26:10;30.70;81.90
11142;DHT22;5625;50.122;19.864;2023-07-20T12:28:41;30.80;75.50
11142;DHT22;5625;50.122;19.864;2023-07-20T12:31:09;30.80;73.30
11142;DHT22;5625;50.122;19.864;2023-07-20T12:33:37;30.90;62.70
11142;DHT22;5625;50.122;19.864;2023-07-20T12:36:06;30.90;56.60
11142;DHT22;5625;50.122;19.864;2023-07-20T12:38:34;30.90;44.00
11142;DHT22;5625;50.122;19.864;2023-07-20T12:41:02;30.90;41.50
11142;DHT22;5625;50.122;19.864;2023-07-20T12:43:31;31.00;44.90
11142;DHT22;5625;50.122;19.864;2023-07-20T12:46:01;31.00;47.00
11142;DHT22;5625;50.122;19.864;2023-07-20T12:48:29;31.00;48.20
11142;DHT22;5625;50.122;19.864;2023-07-20T12:51:00;31.00;44.30
11142;DHT22;5625;50.122;19.864;2023-07-20T12:53:28;30.90;45.20
11142;DHT22;5625;50.122;19.864;2023-07-20T12:55:56;30.90;33.50
11142;DHT22;5625;50.122;19.864;2023-07-20T12:58:24;30.80;32.00
11142;DHT22;5625;50.122;19.864;2023-07-20T13:00:52;30.90;36.50
11142;DHT22;5625;50.122;19.864;2023-07-20T13:03:22;30.90;23.30
11142;DHT22;5625;50.122;19.864;2023-07-20T13:05:53;30.70;15.00
11142;DHT22;5625;50.122;19.864;2023-07-20T13:08:24;30.70;17.90
11142;DHT22;5625;50.122;19.864;2023-07-20T13:10:53;30.70;20.40
11142;DHT22;5625;50.122;19.864;2023-07-20T13:13:21;30.70;18.70
11142;DHT22;5625;50.122;19.864;2023-07-20T13:15:49;30.70;17.50
11142;DHT22;5625;50.122;19.864;2023-07-20T13:18:17;30.50;9.00
11142;DHT22;5625;50.122;19.864;2023-07-20T13:20:47;30.40;6.70
11142;DHT22;5625;50.122;19.864;2023-07-20T13:23:15;30.40;7.70
11142;DHT22;5625;50.122;19.864;2023-07-20T13:25:43;30.40;7.30
11142;DHT22;5625;50.122;19.864;2023-07-20T13:28:11;30.30;3.60
11142;DHT22;5625;50.122;19.864;2023-07-20T13:30:39;30.20;4.00
11142;DHT22;5625;50.122;19.864;2023-07-20T13:33:07;30.20;4.80
11142;DHT22;5625;50.122;19.864;2023-07-20T13:35:47;29.90;1.00
11142;DHT22;5625;50.122;19.864;2023-07-20T13:38:16;29.60;1.00
11142;DHT22;5625;50.122;19.864;2023-07-20T13:40:44;29.60;1.80
11142;DHT22;5625;50.122;19.864;2023-07-20T13:43:12;29.60;4.70
11142;DHT22;5625;50.122;19.864;2023-07-20T13:45:40;29.80;8.10
11142;DHT22;5625;50.122;19.864;2023-07-20T13:48:08;29.70;17.90
11142;DHT22;5625;50.122;19.864;2023-07-20T13:50:36;29.80;11.00
11142;DHT22;5625;50.122;19.864;2023-07-20T13:53:26;29.70;10.00
11142;DHT22;5625;50.122;19.864;2023-07-20T13:55:58;29.90;15.90
11142;DHT22;5625;50.122;19.864;2023-07-20T13:58:29;29.80;12.90
11142;DHT22;5625;50.122;19.864;2023-07-20T14:00:57;29.70;9.40
11142;DHT22;5625;50.122;19.864;2023-07-20T14:03:26;29.90;10.80
11142;DHT22;5625;50.122;19.864;2023-07-20T14:05:54;29.90;10.10
11142;DHT22;5625;50.122;19.864;2023-07-20T14:08:27;29.90;6.40
11142;DHT22;5625;50.122;19.864;2023-07-20T14:10:57;29.90;3.10
11142;DHT22;5625;50.122;19.864;2023-07-20T14:13:27;29.90;1.00
11142;DHT22;5625;50.122;19.864;2023-07-20T14:16:13;29.80;1.00
11142;DHT22;5625;50.122;19.864;2023-07-20T14:18:41;29.70;1.00
11142;DHT22;5625;50.122;19.864;2023-07-20T14:21:13;29.60;6.70
11142;DHT22;5625;50.122;19.864;2023-07-20T14:23:45;29.40;5.70
11142;DHT22;5625;50.122;19.864;2023-07-20T14:26:14;29.30;5.70
11142;DHT22;5625;50.122;19.864;2023-07-20T14:28:42;29.20;8.80
11142;DHT22;5625;50.122;19.864;2023-07-20T14:31:10;29.10;7.10
11142;DHT22;5625;50.122;19.864;2023-07-20T14:33:41;28.90;3.50
11142;DHT22;5625;50.122;19.864;2023-07-20T14:36:09;28.80;4.80
11142;DHT22;5625;50.122;19.864;2023-07-20T14:38:38;28.80;6.40
11142;DHT22;5625;50.122;19.864;2023-07-20T14:41:08;28.70;8.70
11142;DHT22;5625;50.122;19.864;2023-07-20T14:43:41;28.80;12.90
11142;DHT22;5625;50.122;19.864;2023-07-20T14:46:12;28.80;14.70
11142;DHT22;5625;50.122;19.864;2023-07-20T14:48:40;28.70;14.90
11142;DHT22;5625;50.122;19.864;2023-07-20T14:51:10;28.50;16.40
11142;DHT22;5625;50.122;19.864;2023-07-20T14:53:39;28.40;19.60
11142;DHT22;5625;50.122;19.864;2023-07-20T14:56:08;28.30;31.00
11142;DHT22;5625;50.122;19.864;2023-07-20T14:58:36;28.20;25.90
11142;DHT22;5625;50.122;19.864;2023-07-20T15:01:05;28.10;29.70
11142;DHT22;5625;50.122;19.864;2023-07-20T15:03:33;28.00;36.50
11142;DHT22;5625;50.122;19.864;2023-07-20T15:06:01;27.90;40.70
11142;DHT22;5625;50.122;19.864;2023-07-20T15:08:30;27.80;47.80
11142;DHT22;5625;50.122;19.864;2023-07-20T15:10:58;27.80;54.90
11142;DHT22;5625;50.122;19.864;2023-07-20T15:13:28;27.80;68.20
11142;DHT22;5625;50.122;19.864;2023-07-20T15:15:56;27.90;85.00
11142;DHT22;5625;50.122;19.864;2023-07-20T15:18:25;28.00;83.80
11142;DHT22;5625;50.122;19.864;2023-07-20T15:21:12;28.00;88.80
11142;DHT22;5625;50.122;19.864;2023-07-20T15:23:41;28.00;91.50
11142;DHT22;5625;50.122;19.864;2023-07-20T15:26:09;27.90;94.20
11142;DHT22;5625;50.122;19.864;2023-07-20T15:28:39;27.90;99.90
11142;DHT22;5625;50.122;19.864;2023-07-20T15:31:08;27.80;99.90
11142;DHT22;5625;50.122;19.864;2023-07-20T15:33:36;27.80;99.90
11142;DHT22;5625;50.122;19.864;2023-07-20T15:36:04;27.70;99.90
11142;DHT22;5625;50.122;19.864;2023-07-20T15:38:33;27.60;99.90
11142;DHT22;5625;50.122;19.864;2023-07-20T15:41:02;27.60;99.90
11142;DHT22;5625;50.122;19.864;2023-07-20T15:43:31;27.30;99.90
11142;DHT22;5625;50.122;19.864;2023-07-20T15:49:09;26.70;99.90
11142;DHT22;5625;50.122;19.864;2023-07-20T15:51:40;26.40;99.90
11142;DHT22;5625;50.122;19.864;2023-07-20T15:54:10;26.10;99.90
11142;DHT22;5625;50.122;19.864;2023-07-20T15:56:39;25.90;99.90
11142;DHT22;5625;50.122;19.864;2023-07-20T15:59:09;25.80;1.00